sensor_id;sensor_type;location;lat;lon;timestamp;P1;durP1;ratioP1;P2;durP2;ratioP2
35576;SDS011;21680;52.400;16.920;2023-12-07T00:00:29;116.00;;;40.30;;
35576;SDS011;21680;52.400;16.920;2023-12-07T00:02:55;124.90;;;40.70;;
35576;SDS011;21680;52.400;16.920;2023-12-07T00:05:20;119.10;;;40.60;;
35576;SDS011;21680;52.400;16.920;2023-12-07T00:07:45;117.70;;;38.70;;
35576;SDS011;21680;52.400;16.920;2023-12-07T00:10:11;124.10;;;41.60;;
35576;SDS011;21680;52.400;16.920;2023-12-07T00:12:36;117.50;;;40.70;;
35576;SDS011;21680;52.400;16.920;2023-12-07T00:15:02;120.00;;;39.70;;
35576;SDS011;21680;52.400;16.920;2023-12-07T00:17:27;115.50;;;39.30;;
35576;SDS011;21680;52.400;16.920;2023-12-07T00:19:53;119.60;;;39.80;;
35576;SDS011;21680;52.400;16.920;2023-12-07T00:22:20;118.90;;;40.60;;
35576;SDS011;21680;52.400;16.920;2023-12-07T00:24:46;117.00;;;39.10;;
35576;SDS011;21680;52.400;16.920;2023-12-07T00:27:12;125.30;;;41.60;;
35576;SDS011;21680;52.400;16.920;2023-12-07T00:29:37;122.10;;;39.20;;
35576;SDS011;21680;52.400;16.920;2023-12-07T00:32:03;120.80;;;40.70;;
35576;SDS011;21680;52.400;16.920;2023-12-07T00:34:30;127.00;;;42.40;;
35576;SDS011;21680;52.400;16.920;2023-12-07T00:36:55;121.70;;;39.70;;
35576;SDS011;21680;52.400;16.920;2023-12-07T00:39:21;125.80;;;40.30;;
35576;SDS011;21680;52.400;16.920;2023-12-07T00:41:46;122.40;;;40.80;;
35576;SDS011;21680;52.400;16.920;2023-12-07T00:44:13;115.70;;;40.30;;
35576;SDS011;21680;52.400;16.920;2023-12-07T00:46:39;111.90;;;38.20;;
35576;SDS011;21680;52.400;16.920;2023-12-07T00:49:05;124.30;;;41.10;;
35576;SDS011;21680;52.400;16.920;2023-12-07T00:51:31;116.60;;;40.40;;
35576;SDS011;21680;52.400;16.920;2023-12-07T00:53:56;115.30;;;41.40;;
35576;SDS011;21680;52.400;16.920;2023-12-07T00:56:21;122.40;;;40.50;;
35576;SDS011;21680;52.400;16.920;2023-12-07T00:58:47;110.80;;;38.60;;
35576;SDS011;21680;52.400;16.920;2023-12-07T01:01:13;128.90;;;41.90;;
35576;SDS011;21680;52.400;16.920;2023-12-07T01:03:39;129.90;;;42.90;;
35576;SDS011;21680;52.400;16.920;2023-12-07T01:06:06;127.20;;;41.80;;
35576;SDS011;21680;52.400;16.920;2023-12-07T01:08:32;126.10;;;40.10;;
35576;SDS011;21680;52.400;16.920;2023-12-07T01:10:57;119.90;;;41.70;;
35576;SDS011;21680;52.400;16.920;2023-12-07T01:13:23;120.70;;;40.60;;
35576;SDS011;21680;52.400;16.920;2023-12-07T01:15:49;121.70;;;39.20;;
35576;SDS011;21680;52.400;16.920;2023-12-07T01:18:15;111.80;;;39.10;;
35576;SDS011;21680;52.400;16.920;2023-12-07T01:20:41;108.70;;;38.20;;
35576;SDS011;21680;52.400;16.920;2023-12-07T01:23:06;123.10;;;39.70;;
35576;SDS011;21680;52.400;16.920;2023-12-07T01:25:33;113.30;;;39.90;;
35576;SDS011;21680;52.400;16.920;2023-12-07T01:27:59;115.00;;;39.10;;
35576;SDS011;21680;52.400;16.920;2023-12-07T01:30:25;112.60;;;40.90;;
35576;SDS011;21680;52.400;16.920;2023-12-07T01:32:50;119.50;;;38.60;;
35576;SDS011;21680;52.400;16.920;2023-12-07T01:35:16;120.10;;;39.80;;
35576;SDS011;21680;52.400;16.920;2023-12-07T01:37:41;118.70;;;39.50;;
35576;SDS011;21680;52.400;16.920;2023-12-07T01:40:07;119.40;;;38.60;;
35576;SDS011;21680;52.400;16.920;2023-12-07T01:42:35;116.10;;;38.80;;
35576;SDS011;21680;52.400;16.920;2023-12-07T01:45:04;110.90;;;38.80;;
35576;SDS011;21680;52.400;16.920;2023-12-07T01:47:35;121.30;;;40.00;;
35576;SDS011;21680;52.400;16.920;2023-12-07T01:50:01;115.00;;;37.30;;
35576;SDS011;21680;52.400;16.920;2023-12-07T01:52:29;106.00;;;38.10;;
35576;SDS011;21680;52.400;16.920;2023-12-07T01:54:56;123.10;;;39.20;;
35576;SDS011;21680;52.400;16.920;2023-12-07T01:57:22;116.80;;;39.90;;
35576;SDS011;21680;52.400;16.920;2023-12-07T01:59:48;113.70;;;38.20;;
35576;SDS011;21680;52.400;16.920;2023-12-07T02:02:15;117.10;;;39.20;;
35576;SDS011;21680;52.400;16.920;2023-12-07T02:04:40;112.70;;;38.20;;
35576;SDS011;21680;52.400;16.920;2023-12-07T02:07:06;125.30;;;39.70;;
35576;SDS011;21680;52.400;16.920;2023-12-07T02:09:33;113.50;;;39.40;;
35576;SDS011;21680;52.400;16.920;2023-12-07T02:11:58;117.20;;;37.90;;
35576;SDS011;21680;52.400;16.920;2023-12-07T02:14:23;117.70;;;38.50;;
35576;SDS011;21680;52.400;16.920;2023-12-07T02:16:51;115.60;;;39.50;;
35576;SDS011;21680;52.400;16.920;2023-12-07T02:22:12;112.50;;;37.80;;
35576;SDS011;21680;52.400;16.920;2023-12-07T02:25:10;119.80;;;40.60;;
35576;SDS011;21680;52.400;16.920;2023-12-07T02:27:43;107.40;;;36.70;;
35576;SDS011;21680;52.400;16.920;2023-12-07T02:30:11;110.80;;;38.00;;
35576;SDS011;21680;52.400;16.920;2023-12-07T02:32:37;121.20;;;39.20;;
35576;SDS011;21680;52.400;16.920;2023-12-07T02:35:04;116.60;;;38.10;;
35576;SDS011;21680;52.400;16.920;2023-12-07T02:37:40;112.20;;;36.80;;
35576;SDS011;21680;52.400;16.920;2023-12-07T02:40:08;110.60;;;37.50;;
35576;SDS011;21680;52.400;16.920;2023-12-07T02:42:36;107.70;;;35.30;;
35576;SDS011;21680;52.400;16.920;2023-12-07T02:45:04;117.50;;;38.50;;
35576;SDS011;21680;52.400;16.920;2023-12-07T02:47:30;115.00;;;39.70;;
35576;SDS011;21680;52.400;16.920;2023-12-07T02:49:55;119.10;;;41.90;;
35576;SDS011;21680;52.400;16.920;2023-12-07T02:52:20;118.20;;;38.00;;
35576;SDS011;21680;52.400;16.920;2023-12-07T02:54:46;113.50;;;37.30;;
35576;SDS011;21680;52.400;16.920;2023-12-07T02:57:11;105.50;;;38.60;;
35576;SDS011;21680;52.400;16.920;2023-12-07T02:59:37;120.80;;;39.50;;
35576;SDS011;21680;52.400;16.920;2023-12-07T03:02:02;112.80;;;39.10;;
35576;SDS011;21680;52.400;16.920;2023-12-07T03:04:28;106.40;;;37.10;;
35576;SDS011;21680;52.400;16.920;2023-12-07T03:06:53;115.20;;;37.50;;
35576;SDS011;21680;52.400;16.920;2023-12-07T03:09:19;122.60;;;39.70;;
35576;SDS011;21680;52.400;16.920;2023-12-07T03:11:44;109.60;;;36.50;;
35576;SDS011;21680;52.400;16.920;2023-12-07T03:14:10;120.90;;;40.00;;
35576;SDS011;21680;52.400;16.920;2023-12-07T03:16:35;109.10;;;36.50;;
35576;SDS011;21680;52.400;16.920;2023-12-07T03:19:01;116.20;;;39.90;;
35576;SDS011;21680;52.400;16.920;2023-12-07T03:21:27;108.60;;;38.30;;
35576;SDS011;21680;52.400;16.920;2023-12-07T03:23:52;114.80;;;38.50;;
35576;SDS011;21680;52.400;16.920;2023-12-07T03:26:17;114.10;;;39.30;;
35576;SDS011;21680;52.400;16.920;2023-12-07T03:28:42;115.50;;;39.20;;
35576;SDS011;21680;52.400;16.920;2023-12-07T03:31:08;107.50;;;37.90;;
35576;SDS011;21680;52.400;16.920;2023-12-07T03:33:33;109.70;;;37.40;;
35576;SDS011;21680;52.400;16.920;2023-12-07T03:35:58;109.10;;;35.40;;
35576;SDS011;21680;52.400;16.920;2023-12-07T03:38:23;108.00;;;37.60;;
35576;SDS011;21680;52.400;16.920;2023-12-07T03:40:49;115.10;;;38.90;;
35576;SDS011;21680;52.400;16.920;2023-12-07T03:43:16;123.70;;;40.20;;
35576;SDS011;21680;52.400;16.920;2023-12-07T03:45:44;112.60;;;37.60;;
35576;SDS011;21680;52.400;16.920;2023-12-07T03:48:10;114.90;;;40.00;;
35576;SDS011;21680;52.400;16.920;2023-12-07T03:50:35;123.10;;;40.70;;
35576;SDS011;21680;52.400;16.920;2023-12-07T03:53:01;115.80;;;38.20;;
35576;SDS011;21680;52.400;16.920;2023-12-07T03:55:26;117.10;;;37.90;;
35576;SDS011;21680;52.400;16.920;2023-12-07T03:57:51;114.10;;;37.90;;
35576;SDS011;21680;52.400;16.920;2023-12-07T04:00:17;106.70;;;37.80;;
35576;SDS011;21680;52.400;16.920;2023-12-07T04:02:42;109.50;;;37.80;;
35576;SDS011;21680;52.400;16.920;2023-12-07T04:05:07;105.80;;;36.90;;
35576;SDS011;21680;52.400;16.920;2023-12-07T04:07:33;118.50;;;39.70;;
35576;SDS011;21680;52.400;16.920;2023-12-07T04:09:59;120.30;;;38.80;;
35576;SDS011;21680;52.400;16.920;2023-12-07T04:12:25;119.40;;;37.90;;
35576;SDS011;21680;52.400;16.920;2023-12-07T04:14:50;113.70;;;36.20;;
35576;SDS011;21680;52.400;16.920;2023-12-07T04:17:17;111.20;;;37.50;;
35576;SDS011;21680;52.400;16.920;2023-12-07T04:19:42;116.80;;;41.00;;
35576;SDS011;21680;52.400;16.920;2023-12-07T04:22:07;117.10;;;39.40;;
35576;SDS011;21680;52.400;16.920;2023-12-07T04:24:34;108.70;;;38.50;;
35576;SDS011;21680;52.400;16.920;2023-12-07T04:26:59;116.70;;;39.80;;
35576;SDS011;21680;52.400;16.920;2023-12-07T04:29:25;110.40;;;37.30;;
35576;SDS011;21680;52.400;16.920;2023-12-07T04:31:50;113.60;;;39.20;;
35576;SDS011;21680;52.400;16.920;2023-12-07T04:34:16;109.40;;;37.20;;
35576;SDS011;21680;52.400;16.920;2023-12-07T04:36:41;123.70;;;39.60;;
35576;SDS011;21680;52.400;16.920;2023-12-07T04:39:07;123.30;;;39.90;;
35576;SDS011;21680;52.400;16.920;2023-12-07T04:41:33;106.70;;;38.30;;
35576;SDS011;21680;52.400;16.920;2023-12-07T04:43:58;119.50;;;40.50;;
35576;SDS011;21680;52.400;16.920;2023-12-07T04:46:23;119.90;;;39.70;;
35576;SDS011;21680;52.400;16.920;2023-12-07T04:48:50;120.20;;;39.90;;
35576;SDS011;21680;52.400;16.920;2023-12-07T04:51:15;118.00;;;39.50;;
35576;SDS011;21680;52.400;16.920;2023-12-07T04:53:40;123.40;;;41.10;;
35576;SDS011;21680;52.400;16.920;2023-12-07T04:56:06;114.70;;;40.10;;
35576;SDS011;21680;52.400;16.920;2023-12-07T04:58:33;121.50;;;40.90;;
35576;SDS011;21680;52.400;16.920;2023-12-07T05:00:58;116.10;;;39.80;;
35576;SDS011;21680;52.400;16.920;2023-12-07T05:03:24;114.40;;;38.80;;
35576;SDS011;21680;52.400;16.920;2023-12-07T05:05:49;125.20;;;40.30;;
35576;SDS011;21680;52.400;16.920;2023-12-07T05:08:15;121.80;;;42.90;;
35576;SDS011;21680;52.400;16.920;2023-12-07T05:10:40;121.70;;;43.20;;
35576;SDS011;21680;52.400;16.920;2023-12-07T05:13:06;116.00;;;41.40;;
35576;SDS011;21680;52.400;16.920;2023-12-07T05:15:31;120.10;;;41.50;;
35576;SDS011;21680;52.400;16.920;2023-12-07T05:17:56;121.20;;;41.70;;
35576;SDS011;21680;52.400;16.920;2023-12-07T05:20:22;120.90;;;41.00;;
35576;SDS011;21680;52.400;16.920;2023-12-07T05:22:49;123.70;;;41.40;;
35576;SDS011;21680;52.400;16.920;2023-12-07T05:25:15;114.40;;;40.30;;
35576;SDS011;21680;52.400;16.920;2023-12-07T05:27:40;125.60;;;42.60;;
35576;SDS011;21680;52.400;16.920;2023-12-07T05:30:06;133.30;;;43.80;;
35576;SDS011;21680;52.400;16.920;2023-12-07T05:32:32;125.60;;;42.80;;
35576;SDS011;21680;52.400;16.920;2023-12-07T05:34:58;128.40;;;43.20;;
35576;SDS011;21680;52.400;16.920;2023-12-07T05:37:24;131.00;;;43.40;;
35576;SDS011;21680;52.400;16.920;2023-12-07T05:39:50;114.50;;;39.60;;
35576;SDS011;21680;52.400;16.920;2023-12-07T05:42:16;111.20;;;40.10;;
35576;SDS011;21680;52.400;16.920;2023-12-07T05:44:41;127.70;;;42.10;;
35576;SDS011;21680;52.400;16.920;2023-12-07T05:47:06;129.20;;;41.50;;
35576;SDS011;21680;52.400;16.920;2023-12-07T05:49:33;124.20;;;41.10;;
35576;SDS011;21680;52.400;16.920;2023-12-07T05:51:58;120.10;;;40.20;;
35576;SDS011;21680;52.400;16.920;2023-12-07T05:54:24;125.40;;;42.60;;
35576;SDS011;21680;52.400;16.920;2023-12-07T05:56:49;127.30;;;40.70;;
35576;SDS011;21680;52.400;16.920;2023-12-07T05:59:15;122.70;;;40.50;;
35576;SDS011;21680;52.400;16.920;2023-12-07T06:01:40;122.20;;;43.40;;
35576;SDS011;21680;52.400;16.920;2023-12-07T06:04:08;124.80;;;40.80;;
35576;SDS011;21680;52.400;16.920;2023-12-07T06:06:34;114.20;;;39.00;;
35576;SDS011;21680;52.400;16.920;2023-12-07T06:09:00;123.80;;;39.90;;
35576;SDS011;21680;52.400;16.920;2023-12-07T06:11:25;111.80;;;38.50;;
35576;SDS011;21680;52.400;16.920;2023-12-07T06:13:51;127.80;;;42.60;;
35576;SDS011;21680;52.400;16.920;2023-12-07T06:16:16;120.60;;;40.80;;
35576;SDS011;21680;52.400;16.920;2023-12-07T06:18:43;118.60;;;41.10;;
35576;SDS011;21680;52.400;16.920;2023-12-07T06:21:09;114.50;;;38.80;;
35576;SDS011;21680;52.400;16.920;2023-12-07T06:23:34;126.10;;;42.30;;
35576;SDS011;21680;52.400;16.920;2023-12-07T06:26:00;120.00;;;39.10;;
35576;SDS011;21680;52.400;16.920;2023-12-07T06:28:27;122.00;;;41.30;;
35576;SDS011;21680;52.400;16.920;2023-12-07T06:30:53;109.70;;;39.70;;
35576;SDS011;21680;52.400;16.920;2023-12-07T06:33:18;117.20;;;38.70;;
35576;SDS011;21680;52.400;16.920;2023-12-07T06:35:43;129.70;;;43.10;;
35576;SDS011;21680;52.400;16.920;2023-12-07T06:38:09;120.50;;;41.30;;
35576;SDS011;21680;52.400;16.920;2023-12-07T06:40:34;143.90;;;43.40;;
35576;SDS011;21680;52.400;16.920;2023-12-07T06:42:59;115.90;;;40.90;;
35576;SDS011;21680;52.400;16.920;2023-12-07T06:45:25;125.90;;;40.80;;
35576;SDS011;21680;52.400;16.920;2023-12-07T06:47:50;126.60;;;41.90;;
35576;SDS011;21680;52.400;16.920;2023-12-07T06:50:16;127.50;;;43.50;;
35576;SDS011;21680;52.400;16.920;2023-12-07T06:52:41;122.40;;;40.90;;
35576;SDS011;21680;52.400;16.920;2023-12-07T06:55:07;134.60;;;43.90;;
35576;SDS011;21680;52.400;16.920;2023-12-07T06:57:35;108.60;;;38.00;;
35576;SDS011;21680;52.400;16.920;2023-12-07T07:00:00;113.30;;;39.40;;
35576;SDS011;21680;52.400;16.920;2023-12-07T07:02:30;132.80;;;41.30;;
35576;SDS011;21680;52.400;16.920;2023-12-07T07:04:55;278.30;;;54.90;;
35576;SDS011;21680;52.400;16.920;2023-12-07T07:07:21;187.00;;;45.90;;
35576;SDS011;21680;52.400;16.920;2023-12-07T07:09:46;227.40;;;50.20;;
35576;SDS011;21680;52.400;16.920;2023-12-07T07:12:11;215.10;;;48.10;;
35576;SDS011;21680;52.400;16.920;2023-12-07T07:14:37;370.20;;;64.60;;
35576;SDS011;21680;52.400;16.920;2023-12-07T07:17:02;235.40;;;52.70;;
35576;SDS011;21680;52.400;16.920;2023-12-07T07:19:29;716.60;;;107.20;;
35576;SDS011;21680;52.400;16.920;2023-12-07T07:21:55;524.10;;;80.60;;
35576;SDS011;21680;52.400;16.920;2023-12-07T07:24:20;441.90;;;74.40;;
35576;SDS011;21680;52.400;16.920;2023-12-07T07:26:46;469.10;;;78.40;;
35576;SDS011;21680;52.400;16.920;2023-12-07T07:29:11;398.00;;;66.70;;
35576;SDS011;21680;52.400;16.920;2023-12-07T07:31:36;453.30;;;74.60;;
35576;SDS011;21680;52.400;16.920;2023-12-07T07:34:01;324.50;;;61.10;;
35576;SDS011;21680;52.400;16.920;2023-12-07T07:36:29;216.30;;;47.70;;
35576;SDS011;21680;52.400;16.920;2023-12-07T07:38:54;154.40;;;43.90;;
35576;SDS011;21680;52.400;16.920;2023-12-07T07:41:21;150.00;;;43.80;;
35576;SDS011;21680;52.400;16.920;2023-12-07T07:43:47;142.10;;;42.30;;
35576;SDS011;21680;52.400;16.920;2023-12-07T07:46:12;140.90;;;43.60;;
35576;SDS011;21680;52.400;16.920;2023-12-07T07:48:37;127.30;;;44.40;;
35576;SDS011;21680;52.400;16.920;2023-12-07T07:51:04;126.70;;;42.70;;
35576;SDS011;21680;52.400;16.920;2023-12-07T07:53:30;125.60;;;43.00;;
35576;SDS011;21680;52.400;16.920;2023-12-07T07:55:55;121.90;;;42.10;;
35576;SDS011;21680;52.400;16.920;2023-12-07T07:58:20;134.30;;;43.10;;
35576;SDS011;21680;52.400;16.920;2023-12-07T08:00:46;137.80;;;44.40;;
35576;SDS011;21680;52.400;16.920;2023-12-07T08:03:12;134.00;;;42.10;;
35576;SDS011;21680;52.400;16.920;2023-12-07T08:05:38;134.30;;;44.10;;
35576;SDS011;21680;52.400;16.920;2023-12-07T08:08:03;132.90;;;44.60;;
35576;SDS011;21680;52.400;16.920;2023-12-07T08:10:28;132.20;;;42.20;;
35576;SDS011;21680;52.400;16.920;2023-12-07T08:12:54;131.90;;;43.70;;
35576;SDS011;21680;52.400;16.920;2023-12-07T08:15:19;131.20;;;46.00;;
35576;SDS011;21680;52.400;16.920;2023-12-07T08:17:46;134.20;;;43.40;;
35576;SDS011;21680;52.400;16.920;2023-12-07T08:20:12;131.20;;;45.10;;
35576;SDS011;21680;52.400;16.920;2023-12-07T08:22:39;154.00;;;47.90;;
35576;SDS011;21680;52.400;16.920;2023-12-07T08:25:06;138.70;;;46.30;;
35576;SDS011;21680;52.400;16.920;2023-12-07T08:27:33;132.70;;;43.70;;
35576;SDS011;21680;52.400;16.920;2023-12-07T08:30:01;130.80;;;42.60;;
35576;SDS011;21680;52.400;16.920;2023-12-07T08:32:27;138.20;;;45.00;;
35576;SDS011;21680;52.400;16.920;2023-12-07T08:34:52;166.50;;;48.90;;
35576;SDS011;21680;52.400;16.920;2023-12-07T08:37:18;130.30;;;44.60;;
35576;SDS011;21680;52.400;16.920;2023-12-07T08:39:44;145.40;;;45.90;;
35576;SDS011;21680;52.400;16.920;2023-12-07T08:42:09;142.90;;;46.90;;
35576;SDS011;21680;52.400;16.920;2023-12-07T08:44:34;149.40;;;44.40;;
35576;SDS011;21680;52.400;16.920;2023-12-07T08:47:00;136.00;;;44.10;;
35576;SDS011;21680;52.400;16.920;2023-12-07T08:49:25;130.50;;;44.80;;
35576;SDS011;21680;52.400;16.920;2023-12-07T08:51:52;125.90;;;43.00;;
35576;SDS011;21680;52.400;16.920;2023-12-07T08:54:18;139.70;;;43.10;;
35576;SDS011;21680;52.400;16.920;2023-12-07T08:56:46;163.80;;;47.40;;
35576;SDS011;21680;52.400;16.920;2023-12-07T08:59:12;143.50;;;42.90;;
35576;SDS011;21680;52.400;16.920;2023-12-07T09:01:37;147.40;;;46.40;;
35576;SDS011;21680;52.400;16.920;2023-12-07T09:04:03;150.00;;;46.20;;
35576;SDS011;21680;52.400;16.920;2023-12-07T09:06:28;125.50;;;42.70;;
35576;SDS011;21680;52.400;16.920;2023-12-07T09:08:54;139.60;;;45.40;;
35576;SDS011;21680;52.400;16.920;2023-12-07T09:11:20;137.00;;;43.30;;
35576;SDS011;21680;52.400;16.920;2023-12-07T09:13:46;125.30;;;44.30;;
35576;SDS011;21680;52.400;16.920;2023-12-07T09:16:11;131.40;;;43.70;;
35576;SDS011;21680;52.400;16.920;2023-12-07T09:18:37;221.00;;;54.80;;
35576;SDS011;21680;52.400;16.920;2023-12-07T09:21:02;198.00;;;48.90;;
35576;SDS011;21680;52.400;16.920;2023-12-07T09:23:28;133.40;;;46.00;;
35576;SDS011;21680;52.400;16.920;2023-12-07T09:25:53;142.70;;;47.70;;
35576;SDS011;21680;52.400;16.920;2023-12-07T09:28:19;139.90;;;47.60;;
35576;SDS011;21680;52.400;16.920;2023-12-07T09:30:45;167.30;;;52.90;;
35576;SDS011;21680;52.400;16.920;2023-12-07T09:33:10;150.40;;;49.60;;
35576;SDS011;21680;52.400;16.920;2023-12-07T09:35:36;274.70;;;57.00;;
35576;SDS011;21680;52.400;16.920;2023-12-07T09:38:01;193.10;;;50.60;;
35576;SDS011;21680;52.400;16.920;2023-12-07T09:40:27;160.60;;;48.00;;
35576;SDS011;21680;52.400;16.920;2023-12-07T09:42:53;141.40;;;45.50;;
35576;SDS011;21680;52.400;16.920;2023-12-07T09:45:19;147.10;;;47.20;;
35576;SDS011;21680;52.400;16.920;2023-12-07T09:47:50;137.90;;;45.90;;
35576;SDS011;21680;52.400;16.920;2023-12-07T09:50:20;140.70;;;46.00;;
35576;SDS011;21680;52.400;16.920;2023-12-07T09:52:51;149.80;;;48.00;;
35576;SDS011;21680;52.400;16.920;2023-12-07T09:55:18;206.40;;;51.80;;
35576;SDS011;21680;52.400;16.920;2023-12-07T09:57:44;184.90;;;49.00;;
35576;SDS011;21680;52.400;16.920;2023-12-07T10:00:11;178.30;;;51.40;;
35576;SDS011;21680;52.400;16.920;2023-12-07T10:02:39;175.20;;;50.20;;
35576;SDS011;21680;52.400;16.920;2023-12-07T10:05:08;382.40;;;70.20;;
35576;SDS011;21680;52.400;16.920;2023-12-07T10:07:56;262.30;;;58.70;;
35576;SDS011;21680;52.400;16.920;2023-12-07T10:10:21;179.00;;;50.40;;
35576;SDS011;21680;52.400;16.920;2023-12-07T10:12:54;162.10;;;46.60;;
35576;SDS011;21680;52.400;16.920;2023-12-07T10:15:22;162.10;;;47.40;;
35576;SDS011;21680;52.400;16.920;2023-12-07T10:17:50;167.80;;;51.30;;
35576;SDS011;21680;52.400;16.920;2023-12-07T10:20:17;179.90;;;50.30;;
35576;SDS011;21680;52.400;16.920;2023-12-07T10:22:43;221.30;;;53.80;;
35576;SDS011;21680;52.400;16.920;2023-12-07T10:25:10;332.00;;;65.90;;
35576;SDS011;21680;52.400;16.920;2023-12-07T10:27:37;401.30;;;72.10;;
35576;SDS011;21680;52.400;16.920;2023-12-07T10:30:04;300.40;;;66.80;;
35576;SDS011;21680;52.400;16.920;2023-12-07T10:32:31;192.20;;;51.80;;
35576;SDS011;21680;52.400;16.920;2023-12-07T10:35:01;154.50;;;51.10;;
35576;SDS011;21680;52.400;16.920;2023-12-07T10:37:26;149.00;;;49.60;;
35576;SDS011;21680;52.400;16.920;2023-12-07T10:39:52;151.10;;;50.20;;
35576;SDS011;21680;52.400;16.920;2023-12-07T10:42:18;140.50;;;48.80;;
35576;SDS011;21680;52.400;16.920;2023-12-07T10:44:48;148.00;;;48.30;;
35576;SDS011;21680;52.400;16.920;2023-12-07T10:47:23;143.60;;;47.40;;
35576;SDS011;21680;52.400;16.920;2023-12-07T10:49:49;153.40;;;51.30;;
35576;SDS011;21680;52.400;16.920;2023-12-07T10:52:20;144.60;;;48.70;;
35576;SDS011;21680;52.400;16.920;2023-12-07T10:55:09;145.80;;;50.40;;
35576;SDS011;21680;52.400;16.920;2023-12-07T10:57:38;144.20;;;48.20;;
35576;SDS011;21680;52.400;16.920;2023-12-07T11:00:06;156.80;;;50.40;;
35576;SDS011;21680;52.400;16.920;2023-12-07T11:02:34;148.50;;;50.30;;
35576;SDS011;21680;52.400;16.920;2023-12-07T11:05:03;146.20;;;49.40;;
35576;SDS011;21680;52.400;16.920;2023-12-07T11:07:32;148.80;;;49.00;;
35576;SDS011;21680;52.400;16.920;2023-12-07T11:10:12;141.10;;;49.70;;
35576;SDS011;21680;52.400;16.920;2023-12-07T11:12:56;143.40;;;48.00;;
35576;SDS011;21680;52.400;16.920;2023-12-07T11:15:32;207.50;;;52.30;;
35576;SDS011;21680;52.400;16.920;2023-12-07T11:17:57;268.50;;;60.40;;
35576;SDS011;21680;52.400;16.920;2023-12-07T11:23:15;450.90;;;80.40;;
35576;SDS011;21680;52.400;16.920;2023-12-07T11:25:45;463.10;;;80.40;;
35576;SDS011;21680;52.400;16.920;2023-12-07T11:28:11;332.90;;;69.70;;
35576;SDS011;21680;52.400;16.920;2023-12-07T11:30:37;284.30;;;67.90;;
35576;SDS011;21680;52.400;16.920;2023-12-07T11:33:06;277.70;;;61.90;;
35576;SDS011;21680;52.400;16.920;2023-12-07T11:35:32;213.00;;;58.90;;
35576;SDS011;21680;52.400;16.920;2023-12-07T11:38:01;158.90;;;49.80;;
35576;SDS011;21680;52.400;16.920;2023-12-07T11:40:32;162.60;;;50.50;;
35576;SDS011;21680;52.400;16.920;2023-12-07T11:43:03;164.30;;;53.80;;
35576;SDS011;21680;52.400;16.920;2023-12-07T11:45:37;167.10;;;54.60;;
35576;SDS011;21680;52.400;16.920;2023-12-07T11:48:09;220.20;;;56.10;;
35576;SDS011;21680;52.400;16.920;2023-12-07T11:50:36;164.90;;;51.90;;
35576;SDS011;21680;52.400;16.920;2023-12-07T11:53:02;156.80;;;49.90;;
35576;SDS011;21680;52.400;16.920;2023-12-07T11:55:27;151.50;;;51.10;;
35576;SDS011;21680;52.400;16.920;2023-12-07T11:57:53;176.80;;;57.00;;
35576;SDS011;21680;52.400;16.920;2023-12-07T12:00:19;161.00;;;54.70;;
35576;SDS011;21680;52.400;16.920;2023-12-07T12:02:47;170.30;;;54.70;;
35576;SDS011;21680;52.400;16.920;2023-12-07T12:05:13;177.50;;;55.10;;
35576;SDS011;21680;52.400;16.920;2023-12-07T12:07:38;185.10;;;54.70;;
35576;SDS011;21680;52.400;16.920;2023-12-07T12:10:03;179.00;;;57.20;;
35576;SDS011;21680;52.400;16.920;2023-12-07T12:12:31;161.90;;;55.80;;
35576;SDS011;21680;52.400;16.920;2023-12-07T12:14:58;157.90;;;53.80;;
35576;SDS011;21680;52.400;16.920;2023-12-07T12:17:23;169.80;;;55.60;;
35576;SDS011;21680;52.400;16.920;2023-12-07T12:19:49;171.70;;;56.10;;
35576;SDS011;21680;52.400;16.920;2023-12-07T12:22:19;178.70;;;59.60;;
35576;SDS011;21680;52.400;16.920;2023-12-07T12:24:45;428.60;;;81.50;;
35576;SDS011;21680;52.400;16.920;2023-12-07T12:27:11;211.10;;;59.90;;
35576;SDS011;21680;52.400;16.920;2023-12-07T12:29:38;177.50;;;57.10;;
35576;SDS011;21680;52.400;16.920;2023-12-07T12:32:05;163.10;;;53.90;;
35576;SDS011;21680;52.400;16.920;2023-12-07T12:34:34;172.20;;;56.70;;
35576;SDS011;21680;52.400;16.920;2023-12-07T12:36:59;171.90;;;53.70;;
35576;SDS011;21680;52.400;16.920;2023-12-07T12:39:28;163.10;;;56.90;;
35576;SDS011;21680;52.400;16.920;2023-12-07T12:41:55;172.30;;;57.90;;
35576;SDS011;21680;52.400;16.920;2023-12-07T12:44:21;171.60;;;57.40;;
35576;SDS011;21680;52.400;16.920;2023-12-07T12:46:47;175.20;;;55.20;;
35576;SDS011;21680;52.400;16.920;2023-12-07T12:49:12;164.20;;;57.60;;
35576;SDS011;21680;52.400;16.920;2023-12-07T12:51:37;170.60;;;53.30;;
35576;SDS011;21680;52.400;16.920;2023-12-07T12:54:03;164.90;;;56.40;;
35576;SDS011;21680;52.400;16.920;2023-12-07T12:56:28;170.90;;;55.30;;
35576;SDS011;21680;52.400;16.920;2023-12-07T12:58:54;167.70;;;55.20;;
35576;SDS011;21680;52.400;16.920;2023-12-07T13:01:22;171.40;;;55.10;;
35576;SDS011;21680;52.400;16.920;2023-12-07T13:03:48;168.80;;;56.70;;
35576;SDS011;21680;52.400;16.920;2023-12-07T13:06:14;183.00;;;59.00;;
35576;SDS011;21680;52.400;16.920;2023-12-07T13:08:41;174.80;;;57.30;;
35576;SDS011;21680;52.400;16.920;2023-12-07T13:11:06;170.10;;;54.80;;
35576;SDS011;21680;52.400;16.920;2023-12-07T13:13:32;175.00;;;57.80;;
35576;SDS011;21680;52.400;16.920;2023-12-07T13:15:57;180.40;;;58.70;;
35576;SDS011;21680;52.400;16.920;2023-12-07T13:18:22;175.50;;;55.90;;
35576;SDS011;21680;52.400;16.920;2023-12-07T13:20:48;169.90;;;57.10;;
35576;SDS011;21680;52.400;16.920;2023-12-07T13:23:13;196.10;;;62.30;;
35576;SDS011;21680;52.400;16.920;2023-12-07T13:25:39;190.50;;;61.90;;
35576;SDS011;21680;52.400;16.920;2023-12-07T13:28:05;168.60;;;57.30;;
35576;SDS011;21680;52.400;16.920;2023-12-07T13:30:30;195.00;;;62.40;;
35576;SDS011;21680;52.400;16.920;2023-12-07T13:32:58;174.10;;;57.80;;
35576;SDS011;21680;52.400;16.920;2023-12-07T13:35:24;190.10;;;57.40;;
35576;SDS011;21680;52.400;16.920;2023-12-07T13:37:50;166.10;;;54.20;;
35576;SDS011;21680;52.400;16.920;2023-12-07T13:40:15;165.20;;;54.50;;
35576;SDS011;21680;52.400;16.920;2023-12-07T13:42:40;180.40;;;59.40;;
35576;SDS011;21680;52.400;16.920;2023-12-07T13:45:06;178.00;;;59.50;;
35576;SDS011;21680;52.400;16.920;2023-12-07T13:47:33;176.60;;;58.80;;
35576;SDS011;21680;52.400;16.920;2023-12-07T13:50:01;185.10;;;65.60;;
35576;SDS011;21680;52.400;16.920;2023-12-07T13:52:28;182.00;;;61.60;;
35576;SDS011;21680;52.400;16.920;2023-12-07T13:54:54;204.70;;;76.70;;
35576;SDS011;21680;52.400;16.920;2023-12-07T13:57:21;190.10;;;65.20;;